sensor_id;sensor_type;location;lat;lon;timestamp;temperature;humidity
39675;DHT22;27790;50.840;4.386;2023-01-29T00:02:17;3.10;99.90
39675;DHT22;27790;50.840;4.386;2023-01-29T00:04:43;3.10;99.90
39675;DHT22;27790;50.840;4.386;2023-01-29T00:07:08;3.10;99.90
39675;DHT22;27790;50.840;4.386;2023-01-29T00:09:34;3.10;99.90
39675;DHT22;27790;50.840;4.386;2023-01-29T00:12:00;3.10;99.90
39675;DHT22;27790;50.840;4.386;2023-01-29T00:14:25;3.10;99.90
39675;DHT22;27790;50.840;4.386;2023-01-29T00:16:52;3.10;99.90
39675;DHT22;27790;50.840;4.386;2023-01-29T00:19:17;3.10;99.90
39675;DHT22;27790;50.840;4.386;2023-01-29T00:21:43;3.10;99.90
39675;DHT22;27790;50.840;4.386;2023-01-29T00:24:09;3.00;99.90
39675;DHT22;27790;50.840;4.386;2023-01-29T00:26:35;3.10;99.90
39675;DHT22;27790;50.840;4.386;2023-01-29T00:29:03;3.00;99.90
39675;DHT22;27790;50.840;4.386;2023-01-29T00:31:28;3.00;99.90
39675;DHT22;27790;50.840;4.386;2023-01-29T00:33:54;3.00;99.90
39675;DHT22;27790;50.840;4.386;2023-01-29T00:36:20;3.00;99.90
39675;DHT22;27790;50.840;4.386;2023-01-29T00:38:45;3.00;99.90
39675;DHT22;27790;50.840;4.386;2023-01-29T00:41:19;3.00;99.90
39675;DHT22;27790;50.840;4.386;2023-01-29T00:43:55;3.00;99.90
39675;DHT22;27790;50.840;4.386;2023-01-29T00:46:31;3.00;99.90
39675;DHT22;27790;50.840;4.386;2023-01-29T00:48:57;3.00;99.90
39675;DHT22;27790;50.840;4.386;2023-01-29T00:51:22;3.00;99.90
39675;DHT22;27790;50.840;4.386;2023-01-29T00:53:48;2.90;99.90
39675;DHT22;27790;50.840;4.386;2023-01-29T00:56:13;2.90;99.90
39675;DHT22;27790;50.840;4.386;2023-01-29T00:58:39;2.90;99.90
39675;DHT22;27790;50.840;4.386;2023-01-29T01:01:04;2.90;99.90
39675;DHT22;27790;50.840;4.386;2023-01-29T01:03:30;2.90;99.90
39675;DHT22;27790;50.840;4.386;2023-01-29T01:06:02;2.90;99.90
39675;DHT22;27790;50.840;4.386;2023-01-29T01:08:27;2.90;99.90
39675;DHT22;27790;50.840;4.386;2023-01-29T01:11:04;2.90;99.90
39675;DHT22;27790;50.840;4.386;2023-01-29T01:13:31;2.90;99.90
39675;DHT22;27790;50.840;4.386;2023-01-29T01:15:56;2.90;99.90
39675;DHT22;27790;50.840;4.386;2023-01-29T01:18:22;2.90;99.90
39675;DHT22;27790;50.840;4.386;2023-01-29T01:20:47;2.90;99.90
39675;DHT22;27790;50.840;4.386;2023-01-29T01:23:18;2.90;99.90
39675;DHT22;27790;50.840;4.386;2023-01-29T01:25:44;2.80;99.90
39675;DHT22;27790;50.840;4.386;2023-01-29T01:28:10;2.80;99.90
39675;DHT22;27790;50.840;4.386;2023-01-29T01:30:36;2.80;99.90
39675;DHT22;27790;50.840;4.386;2023-01-29T01:33:02;2.80;99.90
39675;DHT22;27790;50.840;4.386;2023-01-29T01:35:27;2.80;99.90
39675;DHT22;27790;50.840;4.386;2023-01-29T01:37:53;2.80;99.90
39675;DHT22;27790;50.840;4.386;2023-01-29T01:40:20;2.80;99.90
39675;DHT22;27790;50.840;4.386;2023-01-29T01:42:49;2.80;99.90
39675;DHT22;27790;50.840;4.386;2023-01-29T01:47:53;2.80;99.90
39675;DHT22;27790;50.840;4.386;2023-01-29T01:50:26;2.80;99.90
39675;DHT22;27790;50.840;4.386;2023-01-29T01:52:54;2.80;99.90
39675;DHT22;27790;50.840;4.386;2023-01-29T01:55:22;2.80;99.90
39675;DHT22;27790;50.840;4.386;2023-01-29T01:57:49;2.80;99.90
39675;DHT22;27790;50.840;4.386;2023-01-29T02:00:17;2.80;99.90
39675;DHT22;27790;50.840;4.386;2023-01-29T02:02:43;2.80;99.90
39675;DHT22;27790;50.840;4.386;2023-01-29T02:05:21;2.80;99.90
39675;DHT22;27790;50.840;4.386;2023-01-29T02:07:57;2.80;99.90
39675;DHT22;27790;50.840;4.386;2023-01-29T02:13:09;2.80;99.90
39675;DHT22;27790;50.840;4.386;2023-01-29T02:15:35;2.80;99.90
39675;DHT22;27790;50.840;4.386;2023-01-29T02:18:01;2.80;99.90
39675;DHT22;27790;50.840;4.386;2023-01-29T02:20:28;2.80;99.90
39675;DHT22;27790;50.840;4.386;2023-01-29T02:30:31;2.70;99.90
39675;DHT22;27790;50.840;4.386;2023-01-29T02:33:08;2.70;99.90
39675;DHT22;27790;50.840;4.386;2023-01-29T02:48:18;2.60;99.90
39675;DHT22;27790;50.840;4.386;2023-01-29T02:50:49;2.60;99.90
39675;DHT22;27790;50.840;4.386;2023-01-29T02:53:20;2.50;99.90
39675;DHT22;27790;50.840;4.386;2023-01-29T02:56:12;2.40;99.90
39675;DHT22;27790;50.840;4.386;2023-01-29T02:58:37;2.40;99.90
39675;DHT22;27790;50.840;4.386;2023-01-29T03:01:10;2.40;99.90
39675;DHT22;27790;50.840;4.386;2023-01-29T03:03:39;2.40;99.90
39675;DHT22;27790;50.840;4.386;2023-01-29T03:06:06;2.40;99.90
39675;DHT22;27790;50.840;4.386;2023-01-29T03:08:38;2.40;99.90
39675;DHT22;27790;50.840;4.386;2023-01-29T03:11:07;2.40;99.90
39675;DHT22;27790;50.840;4.386;2023-01-29T03:18:42;2.40;99.90
39675;DHT22;27790;50.840;4.386;2023-01-29T03:21:15;2.50;99.90
39675;DHT22;27790;50.840;4.386;2023-01-29T03:23:53;2.50;99.90
39675;DHT22;27790;50.840;4.386;2023-01-29T03:26:30;2.50;99.90
39675;DHT22;27790;50.840;4.386;2023-01-29T03:29:06;2.50;99.90
39675;DHT22;27790;50.840;4.386;2023-01-29T03:31:45;2.50;99.90
39675;DHT22;27790;50.840;4.386;2023-01-29T03:34:22;2.50;99.90
39675;DHT22;27790;50.840;4.386;2023-01-29T03:36:59;2.50;99.90
39675;DHT22;27790;50.840;4.386;2023-01-29T03:39:26;2.50;99.90
39675;DHT22;27790;50.840;4.386;2023-01-29T03:49:23;2.40;99.90
39675;DHT22;27790;50.840;4.386;2023-01-29T03:52:13;2.40;99.90
39675;DHT22;27790;50.840;4.386;2023-01-29T03:54:47;2.40;99.90
39675;DHT22;27790;50.840;4.386;2023-01-29T04:02:15;2.40;99.90
39675;DHT22;27790;50.840;4.386;2023-01-29T04:04:44;2.40;99.90
39675;DHT22;27790;50.840;4.386;2023-01-29T04:07:15;2.30;99.90
39675;DHT22;27790;50.840;4.386;2023-01-29T04:09:44;2.40;99.90
39675;DHT22;27790;50.840;4.386;2023-01-29T04:12:11;2.40;99.90
39675;DHT22;27790;50.840;4.386;2023-01-29T04:14:37;2.40;99.90
39675;DHT22;27790;50.840;4.386;2023-01-29T04:19:40;2.40;99.90
39675;DHT22;27790;50.840;4.386;2023-01-29T04:22:12;2.40;99.90
39675;DHT22;27790;50.840;4.386;2023-01-29T04:24:40;2.40;99.90
39675;DHT22;27790;50.840;4.386;2023-01-29T04:34:59;2.40;99.90
39675;DHT22;27790;50.840;4.386;2023-01-29T04:37:49;2.40;99.90
39675;DHT22;27790;50.840;4.386;2023-01-29T04:40:17;2.40;99.90
39675;DHT22;27790;50.840;4.386;2023-01-29T04:42:54;2.40;99.90
39675;DHT22;27790;50.840;4.386;2023-01-29T04:50:21;2.50;99.90
39675;DHT22;27790;50.840;4.386;2023-01-29T04:55:23;2.60;99.90
39675;DHT22;27790;50.840;4.386;2023-01-29T05:00:27;2.70;99.90
39675;DHT22;27790;50.840;4.386;2023-01-29T05:02:54;2.80;99.90
39675;DHT22;27790;50.840;4.386;2023-01-29T05:05:20;2.80;99.90
39675;DHT22;27790;50.840;4.386;2023-01-29T05:07:46;2.90;99.90
39675;DHT22;27790;50.840;4.386;2023-01-29T05:10:13;3.00;99.90
39675;DHT22;27790;50.840;4.386;2023-01-29T05:12:39;3.10;99.90
39675;DHT22;27790;50.840;4.386;2023-01-29T05:15:08;3.10;99.90
39675;DHT22;27790;50.840;4.386;2023-01-29T05:17:35;3.20;99.90
39675;DHT22;27790;50.840;4.386;2023-01-29T05:20:01;3.20;99.90
39675;DHT22;27790;50.840;4.386;2023-01-29T05:22:26;3.30;99.90
39675;DHT22;27790;50.840;4.386;2023-01-29T05:24:52;3.40;99.90
39675;DHT22;27790;50.840;4.386;2023-01-29T05:27:20;3.50;99.90
39675;DHT22;27790;50.840;4.386;2023-01-29T05:29:57;3.50;99.90
39675;DHT22;27790;50.840;4.386;2023-01-29T05:32:23;3.50;99.90
39675;DHT22;27790;50.840;4.386;2023-01-29T05:34:48;3.60;99.90
39675;DHT22;27790;50.840;4.386;2023-01-29T05:37:14;3.70;99.90
39675;DHT22;27790;50.840;4.386;2023-01-29T05:39:39;3.70;99.90
39675;DHT22;27790;50.840;4.386;2023-01-29T05:42:05;3.80;99.90
39675;DHT22;27790;50.840;4.386;2023-01-29T05:44:30;3.80;99.90
39675;DHT22;27790;50.840;4.386;2023-01-29T05:46:56;3.80;99.90
39675;DHT22;27790;50.840;4.386;2023-01-29T05:49:21;3.80;99.90
39675;DHT22;27790;50.840;4.386;2023-01-29T05:51:47;3.80;99.90
39675;DHT22;27790;50.840;4.386;2023-01-29T05:54:12;3.90;99.90
39675;DHT22;27790;50.840;4.386;2023-01-29T05:56:38;3.90;99.90
39675;DHT22;27790;50.840;4.386;2023-01-29T05:59:04;4.00;99.90
39675;DHT22;27790;50.840;4.386;2023-01-29T06:01:29;4.00;99.90
39675;DHT22;27790;50.840;4.386;2023-01-29T06:03:55;4.00;99.90
39675;DHT22;27790;50.840;4.386;2023-01-29T06:06:20;4.00;99.90
39675;DHT22;27790;50.840;4.386;2023-01-29T06:08:46;4.00;99.90
39675;DHT22;27790;50.840;4.386;2023-01-29T06:11:12;4.00;99.90
39675;DHT22;27790;50.840;4.386;2023-01-29T06:13:38;4.00;99.90
39675;DHT22;27790;50.840;4.386;2023-01-29T06:16:04;4.00;99.90
39675;DHT22;27790;50.840;4.386;2023-01-29T06:18:34;4.10;99.90
39675;DHT22;27790;50.840;4.386;2023-01-29T06:21:03;4.10;99.90
39675;DHT22;27790;50.840;4.386;2023-01-29T06:23:29;4.10;99.90
39675;DHT22;27790;50.840;4.386;2023-01-29T06:25:58;4.20;99.90
39675;DHT22;27790;50.840;4.386;2023-01-29T06:28:24;4.20;99.90
39675;DHT22;27790;50.840;4.386;2023-01-29T06:30:50;4.20;99.90
39675;DHT22;27790;50.840;4.386;2023-01-29T06:33:15;4.20;99.90
39675;DHT22;27790;50.840;4.386;2023-01-29T06:35:40;4.20;99.90
39675;DHT22;27790;50.840;4.386;2023-01-29T06:38:06;4.20;99.90
39675;DHT22;27790;50.840;4.386;2023-01-29T06:40:31;4.20;99.90
39675;DHT22;27790;50.840;4.386;2023-01-29T06:42:58;4.10;99.90
39675;DHT22;27790;50.840;4.386;2023-01-29T06:45:24;4.20;99.90
39675;DHT22;27790;50.840;4.386;2023-01-29T06:47:49;4.20;99.90
39675;DHT22;27790;50.840;4.386;2023-01-29T06:50:15;4.30;99.90
39675;DHT22;27790;50.840;4.386;2023-01-29T06:52:40;4.30;99.90
39675;DHT22;27790;50.840;4.386;2023-01-29T06:55:06;4.30;99.90
39675;DHT22;27790;50.840;4.386;2023-01-29T06:57:32;4.30;99.90
39675;DHT22;27790;50.840;4.386;2023-01-29T06:59:57;4.40;99.90
39675;DHT22;27790;50.840;4.386;2023-01-29T07:02:23;4.40;99.90
39675;DHT22;27790;50.840;4.386;2023-01-29T07:04:49;4.40;99.90
39675;DHT22;27790;50.840;4.386;2023-01-29T07:07:14;4.50;99.90
39675;DHT22;27790;50.840;4.386;2023-01-29T07:09:40;4.50;99.90
39675;DHT22;27790;50.840;4.386;2023-01-29T07:12:06;4.50;99.90
39675;DHT22;27790;50.840;4.386;2023-01-29T07:14:32;4.50;99.90
39675;DHT22;27790;50.840;4.386;2023-01-29T07:16:58;4.60;99.90
39675;DHT22;27790;50.840;4.386;2023-01-29T07:19:23;4.70;99.90
39675;DHT22;27790;50.840;4.386;2023-01-29T07:21:48;4.70;99.90
39675;DHT22;27790;50.840;4.386;2023-01-29T07:24:14;4.70;99.90
39675;DHT22;27790;50.840;4.386;2023-01-29T07:26:40;4.70;99.90
39675;DHT22;27790;50.840;4.386;2023-01-29T07:29:06;4.70;99.90
39675;DHT22;27790;50.840;4.386;2023-01-29T07:31:31;4.70;99.90
39675;DHT22;27790;50.840;4.386;2023-01-29T07:33:57;4.70;99.90
39675;DHT22;27790;50.840;4.386;2023-01-29T07:36:22;4.70;99.90
39675;DHT22;27790;50.840;4.386;2023-01-29T07:38:48;4.60;99.90
39675;DHT22;27790;50.840;4.386;2023-01-29T07:41:14;4.60;99.90
39675;DHT22;27790;50.840;4.386;2023-01-29T07:43:40;4.70;99.90
39675;DHT22;27790;50.840;4.386;2023-01-29T07:46:05;4.80;99.90
39675;DHT22;27790;50.840;4.386;2023-01-29T07:48:31;4.80;99.90
39675;DHT22;27790;50.840;4.386;2023-01-29T07:50:57;4.80;99.90
39675;DHT22;27790;50.840;4.386;2023-01-29T07:53:23;4.80;99.90
39675;DHT22;27790;50.840;4.386;2023-01-29T07:55:49;4.80;99.90
39675;DHT22;27790;50.840;4.386;2023-01-29T07:58:14;4.90;99.90
39675;DHT22;27790;50.840;4.386;2023-01-29T08:00:40;4.90;99.90
39675;DHT22;27790;50.840;4.386;2023-01-29T08:03:10;4.90;99.90
39675;DHT22;27790;50.840;4.386;2023-01-29T08:05:35;4.90;99.90
39675;DHT22;27790;50.840;4.386;2023-01-29T08:08:01;4.90;99.90
39675;DHT22;27790;50.840;4.386;2023-01-29T08:10:27;4.90;99.90
39675;DHT22;27790;50.840;4.386;2023-01-29T08:12:53;4.80;99.90
39675;DHT22;27790;50.840;4.386;2023-01-29T08:15:19;4.80;99.90
39675;DHT22;27790;50.840;4.386;2023-01-29T08:17:44;4.80;99.90
39675;DHT22;27790;50.840;4.386;2023-01-29T08:20:10;4.80;99.90
39675;DHT22;27790;50.840;4.386;2023-01-29T08:22:36;4.90;99.90
39675;DHT22;27790;50.840;4.386;2023-01-29T08:25:01;5.00;99.90
39675;DHT22;27790;50.840;4.386;2023-01-29T08:27:27;5.00;99.90
39675;DHT22;27790;50.840;4.386;2023-01-29T08:29:52;5.10;99.90
39675;DHT22;27790;50.840;4.386;2023-01-29T08:32:18;5.10;99.90
39675;DHT22;27790;50.840;4.386;2023-01-29T08:34:43;5.20;99.90
39675;DHT22;27790;50.840;4.386;2023-01-29T08:37:09;5.20;99.90
39675;DHT22;27790;50.840;4.386;2023-01-29T08:39:37;5.20;99.90
39675;DHT22;27790;50.840;4.386;2023-01-29T08:42:03;5.20;99.90
39675;DHT22;27790;50.840;4.386;2023-01-29T08:44:28;5.20;99.90
39675;DHT22;27790;50.840;4.386;2023-01-29T08:46:54;5.30;99.90
39675;DHT22;27790;50.840;4.386;2023-01-29T08:49:19;5.20;99.90
39675;DHT22;27790;50.840;4.386;2023-01-29T08:51:45;5.30;99.90
39675;DHT22;27790;50.840;4.386;2023-01-29T08:54:10;5.30;99.90
39675;DHT22;27790;50.840;4.386;2023-01-29T08:56:36;5.30;99.90
39675;DHT22;27790;50.840;4.386;2023-01-29T08:59:01;5.30;99.90
39675;DHT22;27790;50.840;4.386;2023-01-29T09:01:27;5.30;99.90
39675;DHT22;27790;50.840;4.386;2023-01-29T09:03:52;5.40;99.90
39675;DHT22;27790;50.840;4.386;2023-01-29T09:06:18;5.50;99.90
39675;DHT22;27790;50.840;4.386;2023-01-29T09:08:43;5.50;99.90
39675;DHT22;27790;50.840;4.386;2023-01-29T09:11:09;5.60;99.80
39675;DHT22;27790;50.840;4.386;2023-01-29T09:13:35;5.70;99.70
39675;DHT22;27790;50.840;4.386;2023-01-29T09:16:01;5.80;99.60
39675;DHT22;27790;50.840;4.386;2023-01-29T09:18:27;5.70;99.60
39675;DHT22;27790;50.840;4.386;2023-01-29T09:20:53;5.80;99.70
39675;DHT22;27790;50.840;4.386;2023-01-29T09:23:18;5.70;99.40
39675;DHT22;27790;50.840;4.386;2023-01-29T09:25:44;5.70;99.60
39675;DHT22;27790;50.840;4.386;2023-01-29T09:28:10;5.70;99.40
39675;DHT22;27790;50.840;4.386;2023-01-29T09:30:35;5.70;99.30
39675;DHT22;27790;50.840;4.386;2023-01-29T09:33:02;5.60;99.50
39675;DHT22;27790;50.840;4.386;2023-01-29T09:35:28;5.70;99.40
39675;DHT22;27790;50.840;4.386;2023-01-29T09:37:54;5.70;99.40
39675;DHT22;27790;50.840;4.386;2023-01-29T09:40:22;5.80;99.50
39675;DHT22;27790;50.840;4.386;2023-01-29T09:42:51;5.80;99.50
39675;DHT22;27790;50.840;4.386;2023-01-29T09:45:20;5.80;99.20
39675;DHT22;27790;50.840;4.386;2023-01-29T09:47:48;5.80;99.20
39675;DHT22;27790;50.840;4.386;2023-01-29T09:50:19;5.90;99.00
39675;DHT22;27790;50.840;4.386;2023-01-29T09:52:48;5.70;99.30
39675;DHT22;27790;50.840;4.386;2023-01-29T09:57:50;5.70;99.50
39675;DHT22;27790;50.840;4.386;2023-01-29T10:00:22;5.70;99.30
39675;DHT22;27790;50.840;4.386;2023-01-29T10:25:38;5.80;99.40
39675;DHT22;27790;50.840;4.386;2023-01-29T10:28:10;5.90;99.10
39675;DHT22;27790;50.840;4.386;2023-01-29T10:30:39;5.90;99.20
39675;DHT22;27790;50.840;4.386;2023-01-29T10:33:11;5.90;99.40
39675;DHT22;27790;50.840;4.386;2023-01-29T10:35:38;6.00;99.20
39675;DHT22;27790;50.840;4.386;2023-01-29T10:45:59;6.10;99.20
39675;DHT22;27790;50.840;4.386;2023-01-29T10:48:34;6.10;98.70
39675;DHT22;27790;50.840;4.386;2023-01-29T10:51:10;6.20;98.80
39675;DHT22;27790;50.840;4.386;2023-01-29T10:56:25;6.30;98.50
39675;DHT22;27790;50.840;4.386;2023-01-29T10:58:57;6.30;98.80
39675;DHT22;27790;50.840;4.386;2023-01-29T11:01:24;6.40;98.40
39675;DHT22;27790;50.840;4.386;2023-01-29T11:03:58;6.40;98.20
39675;DHT22;27790;50.840;4.386;2023-01-29T11:11:23;6.40;98.20
39675;DHT22;27790;50.840;4.386;2023-01-29T11:13:54;6.30;98.30
39675;DHT22;27790;50.840;4.386;2023-01-29T11:16:22;6.30;98.60
39675;DHT22;27790;50.840;4.386;2023-01-29T11:18:52;6.20;98.60
39675;DHT22;27790;50.840;4.386;2023-01-29T11:21:17;6.10;98.80
39675;DHT22;27790;50.840;4.386;2023-01-29T11:23:43;6.20;98.70
39675;DHT22;27790;50.840;4.386;2023-01-29T11:26:10;6.30;98.60
39675;DHT22;27790;50.840;4.386;2023-01-29T11:33:51;6.40;98.40
39675;DHT22;27790;50.840;4.386;2023-01-29T11:36:21;6.40;98.20
39675;DHT22;27790;50.840;4.386;2023-01-29T11:39:01;6.40;98.20
39675;DHT22;27790;50.840;4.386;2023-01-29T11:41:29;6.40;98.30
39675;DHT22;27790;50.840;4.386;2023-01-29T11:43:54;6.50;98.20
39675;DHT22;27790;50.840;4.386;2023-01-29T11:46:23;6.50;98.10
39675;DHT22;27790;50.840;4.386;2023-01-29T11:48:49;6.60;98.20
39675;DHT22;27790;50.840;4.386;2023-01-29T11:51:25;6.70;98.10
39675;DHT22;27790;50.840;4.386;2023-01-29T11:53:51;6.70;98.10
39675;DHT22;27790;50.840;4.386;2023-01-29T11:58:44;6.80;97.90
39675;DHT22;27790;50.840;4.386;2023-01-29T12:01:10;6.90;97.60
39675;DHT22;27790;50.840;4.386;2023-01-29T12:03:38;7.00;97.40
39675;DHT22;27790;50.840;4.386;2023-01-29T12:06:11;7.10;96.80
39675;DHT22;27790;50.840;4.386;2023-01-29T12:08:41;7.10;97.00
39675;DHT22;27790;50.840;4.386;2023-01-29T12:11:13;7.10;97.10
39675;DHT22;27790;50.840;4.386;2023-01-29T12:13:40;7.20;97.00
39675;DHT22;27790;50.840;4.386;2023-01-29T12:16:12;7.30;96.50
39675;DHT22;27790;50.840;4.386;2023-01-29T12:19:01;7.30;96.80
39675;DHT22;27790;50.840;4.386;2023-01-29T12:26:45;6.90;96.80
39675;DHT22;27790;50.840;4.386;2023-01-29T12:39:33;7.20;96.80
39675;DHT22;27790;50.840;4.386;2023-01-29T12:42:19;7.20;96.80
39675;DHT22;27790;50.840;4.386;2023-01-29T12:47:18;7.30;96.60
39675;DHT22;27790;50.840;4.386;2023-01-29T12:49:47;7.40;96.60
39675;DHT22;27790;50.840;4.386;2023-01-29T12:52:16;7.40;96.50
39675;DHT22;27790;50.840;4.386;2023-01-29T12:54:47;7.30;96.30
39675;DHT22;27790;50.840;4.386;2023-01-29T12:59:46;7.30;96.30
39675;DHT22;27790;50.840;4.386;2023-01-29T13:02:17;7.20;96.40
39675;DHT22;27790;50.840;4.386;2023-01-29T13:04:46;7.20;96.60
39675;DHT22;27790;50.840;4.386;2023-01-29T13:07:16;7.00;96.60
39675;DHT22;27790;50.840;4.386;2023-01-29T13:09:47;7.10;96.90
39675;DHT22;27790;50.840;4.386;2023-01-29T13:12:16;7.20;96.70
39675;DHT22;27790;50.840;4.386;2023-01-29T13:17:23;7.20;96.50
39675;DHT22;27790;50.840;4.386;2023-01-29T13:19:51;7.00;96.70
39675;DHT22;27790;50.840;4.386;2023-01-29T13:22:22;7.00;96.90
39675;DHT22;27790;50.840;4.386;2023-01-29T13:24:48;6.80;97.00
39675;DHT22;27790;50.840;4.386;2023-01-29T13:27:19;6.90;97.30
39675;DHT22;27790;50.840;4.386;2023-01-29T13:29:45;6.90;97.20
39675;DHT22;27790;50.840;4.386;2023-01-29T13:32:10;7.00;97.30
39675;DHT22;27790;50.840;4.386;2023-01-29T13:34:43;7.00;96.90
39675;DHT22;27790;50.840;4.386;2023-01-29T13:37:10;7.10;97.00
39675;DHT22;27790;50.840;4.386;2023-01-29T13:39:37;7.20;97.10
39675;DHT22;27790;50.840;4.386;2023-01-29T13:42:15;7.30;97.10
39675;DHT22;27790;50.840;4.386;2023-01-29T13:44:44;7.30;96.70
39675;DHT22;27790;50.840;4.386;2023-01-29T13:47:18;7.30;96.80
39675;DHT22;27790;50.840;4.386;2023-01-29T13:49:45;7.30;97.10
39675;DHT22;27790;50.840;4.386;2023-01-29T13:52:16;7.40;96.60
39675;DHT22;27790;50.840;4.386;2023-01-29T13:59:57;7.50;96.70
39675;DHT22;27790;50.840;4.386;2023-01-29T14:02:27;7.50;97.00
39675;DHT22;27790;50.840;4.386;2023-01-29T14:05:31;7.50;96.80
39675;DHT22;27790;50.840;4.386;2023-01-29T14:07:46;7.50;96.70
39675;DHT22;27790;50.840;4.386;2023-01-29T14:12:43;7.50;96.50
39675;DHT22;27790;50.840;4.386;2023-01-29T14:17:52;7.40;96.70
39675;DHT22;27790;50.840;4.386;2023-01-29T14:20:19;7.30;96.70
39675;DHT22;27790;50.840;4.386;2023-01-29T14:22:55;7.30;96.90
39675;DHT22;27790;50.840;4.386;2023-01-29T14:25:22;7.30;96.70
39675;DHT22;27790;50.840;4.386;2023-01-29T14:27:52;7.20;96.80
39675;DHT22;27790;50.840;4.386;2023-01-29T14:30:17;7.20;96.60
39675;DHT22;27790;50.840;4.386;2023-01-29T14:32:46;7.20;96.60
39675;DHT22;27790;50.840;4.386;2023-01-29T14:35:19;7.10;96.90
39675;DHT22;27790;50.840;4.386;2023-01-29T14:37:47;7.00;96.90
39675;DHT22;27790;50.840;4.386;2023-01-29T14:42:50;6.90;97.20
39675;DHT22;27790;50.840;4.386;2023-01-29T14:47:58;6.80;97.50
39675;DHT22;27790;50.840;4.386;2023-01-29T14:52:53;6.90;97.70
39675;DHT22;27790;50.840;4.386;2023-01-29T14:55:29;6.90;97.40
39675;DHT22;27790;50.840;4.386;2023-01-29T14:57:56;6.90;97.60
39675;DHT22;27790;50.840;4.386;2023-01-29T15:02:48;6.60;97.90
39675;DHT22;27790;50.840;4.386;2023-01-29T15:05:19;6.50;98.30
39675;DHT22;27790;50.840;4.386;2023-01-29T15:10:27;6.70;98.20
39675;DHT22;27790;50.840;4.386;2023-01-29T15:18:08;6.60;98.40
39675;DHT22;27790;50.840;4.386;2023-01-29T15:20:38;6.60;98.50
39675;DHT22;27790;50.840;4.386;2023-01-29T15:25:47;6.50;98.70
39675;DHT22;27790;50.840;4.386;2023-01-29T15:28:13;6.40;99.00
39675;DHT22;27790;50.840;4.386;2023-01-29T15:30:39;6.40;99.20
39675;DHT22;27790;50.840;4.386;2023-01-29T15:33:07;6.30;99.30
39675;DHT22;27790;50.840;4.386;2023-01-29T15:35:35;6.30;99.30
39675;DHT22;27790;50.840;4.386;2023-01-29T15:40:38;6.30;99.40
39675;DHT22;27790;50.840;4.386;2023-01-29T15:43:12;6.40;99.40
39675;DHT22;27790;50.840;4.386;2023-01-29T15:45:42;6.40;99.50
39675;DHT22;27790;50.840;4.386;2023-01-29T15:48:12;6.30;99.80
39675;DHT22;27790;50.840;4.386;2023-01-29T15:50:38;6.20;99.90
39675;DHT22;27790;50.840;4.386;2023-01-29T15:53:05;6.20;99.90
39675;DHT22;27790;50.840;4.386;2023-01-29T15:55:32;6.20;99.90
39675;DHT22;27790;50.840;4.386;2023-01-29T15:57:58;6.20;99.90
39675;DHT22;27790;50.840;4.386;2023-01-29T16:00:24;6.10;99.90
39675;DHT22;27790;50.840;4.386;2023-01-29T16:02:51;6.20;99.90
39675;DHT22;27790;50.840;4.386;2023-01-29T16:05:18;6.20;99.90
39675;DHT22;27790;50.840;4.386;2023-01-29T16:07:44;6.20;99.90
39675;DHT22;27790;50.840;4.386;2023-01-29T16:10:18;6.30;99.90
39675;DHT22;27790;50.840;4.386;2023-01-29T16:12:44;6.40;99.90
39675;DHT22;27790;50.840;4.386;2023-01-29T16:17:54;6.40;99.80
39675;DHT22;27790;50.840;4.386;2023-01-29T16:20:53;6.40;99.90
39675;DHT22;27790;50.840;4.386;2023-01-29T16:23:16;6.30;99.90
39675;DHT22;27790;50.840;4.386;2023-01-29T16:25:42;6.20;99.90
39675;DHT22;27790;50.840;4.386;2023-01-29T16:28:08;6.20;99.90
39675;DHT22;27790;50.840;4.386;2023-01-29T16:30:35;6.20;99.90
39675;DHT22;27790;50.840;4.386;2023-01-29T16:33:04;6.30;99.90
39675;DHT22;27790;50.840;4.386;2023-01-29T16:35:30;6.30;99.90
39675;DHT22;27790;50.840;4.386;2023-01-29T16:38:02;6.30;99.90
39675;DHT22;27790;50.840;4.386;2023-01-29T16:40:29;6.20;99.90
39675;DHT22;27790;50.840;4.386;2023-01-29T16:45:33;6.20;99.90
39675;DHT22;27790;50.840;4.386;2023-01-29T16:47:59;6.20;99.90
39675;DHT22;27790;50.840;4.386;2023-01-29T16:50:30;6.00;99.90
39675;DHT22;27790;50.840;4.386;2023-01-29T16:53:02;5.80;99.90
39675;DHT22;27790;50.840;4.386;2023-01-29T16:58:03;5.90;99.90
39675;DHT22;27790;50.840;4.386;2023-01-29T17:00:33;6.00;99.90
39675;DHT22;27790;50.840;4.386;2023-01-29T17:02:59;6.00;99.90
39675;DHT22;27790;50.840;4.386;2023-01-29T17:05:31;6.10;99.90
39675;DHT22;27790;50.840;4.386;2023-01-29T17:07:57;6.00;99.90
39675;DHT22;27790;50.840;4.386;2023-01-29T17:10:23;6.00;99.90
39675;DHT22;27790;50.840;4.386;2023-01-29T17:12:56;6.10;99.90
39675;DHT22;27790;50.840;4.386;2023-01-29T17:17:59;6.10;99.90
39675;DHT22;27790;50.840;4.386;2023-01-29T17:20:24;6.00;99.90
39675;DHT22;27790;50.840;4.386;2023-01-29T17:22:50;6.00;99.90
39675;DHT22;27790;50.840;4.386;2023-01-29T17:25:15;5.90;99.90
39675;DHT22;27790;50.840;4.386;2023-01-29T17:27:43;6.00;99.90
39675;DHT22;27790;50.840;4.386;2023-01-29T17:30:19;6.00;99.90
39675;DHT22;27790;50.840;4.386;2023-01-29T17:32:45;6.10;99.90
39675;DHT22;27790;50.840;4.386;2023-01-29T17:35:11;6.00;99.90
39675;DHT22;27790;50.840;4.386;2023-01-29T17:37:38;6.00;99.90
39675;DHT22;27790;50.840;4.386;2023-01-29T17:40:08;6.00;99.90
39675;DHT22;27790;50.840;4.386;2023-01-29T17:42:38;6.00;99.90
39675;DHT22;27790;50.840;4.386;2023-01-29T17:45:05;6.00;99.90
39675;DHT22;27790;50.840;4.386;2023-01-29T17:47:31;6.00;99.90
39675;DHT22;27790;50.840;4.386;2023-01-29T17:49:56;6.10;99.90
39675;DHT22;27790;50.840;4.386;2023-01-29T17:52:22;6.10;99.90
39675;DHT22;27790;50.840;4.386;2023-01-29T17:54:48;6.20;99.90
39675;DHT22;27790;50.840;4.386;2023-01-29T17:57:13;6.10;99.90
39675;DHT22;27790;50.840;4.386;2023-01-29T17:59:39;6.10;99.90
39675;DHT22;27790;50.840;4.386;2023-01-29T18:02:05;6.00;99.90
39675;DHT22;27790;50.840;4.386;2023-01-29T18:04:30;6.00;99.90
39675;DHT22;27790;50.840;4.386;2023-01-29T18:06:56;6.00;99.90
39675;DHT22;27790;50.840;4.386;2023-01-29T18:09:22;6.10;99.90
39675;DHT22;27790;50.840;4.386;2023-01-29T18:11:50;6.00;99.90
39675;DHT22;27790;50.840;4.386;2023-01-29T18:14:16;5.90;99.90
39675;DHT22;27790;50.840;4.386;2023-01-29T18:16:42;5.90;99.90
39675;DHT22;27790;50.840;4.386;2023-01-29T18:19:12;5.80;99.90
39675;DHT22;27790;50.840;4.386;2023-01-29T18:21:38;5.60;99.90
39675;DHT22;27790;50.840;4.386;2023-01-29T18:24:03;5.60;99.90
39675;DHT22;27790;50.840;4.386;2023-01-29T18:26:29;5.60;99.90
39675;DHT22;27790;50.840;4.386;2023-01-29T18:28:54;5.60;99.90
39675;DHT22;27790;50.840;4.386;2023-01-29T18:31:20;5.60;99.90
39675;DHT22;27790;50.840;4.386;2023-01-29T18:33:45;5.70;99.90
39675;DHT22;27790;50.840;4.386;2023-01-29T18:36:11;5.70;99.90
39675;DHT22;27790;50.840;4.386;2023-01-29T18:38:37;5.80;99.90
39675;DHT22;27790;50.840;4.386;2023-01-29T18:41:03;5.70;99.90
39675;DHT22;27790;50.840;4.386;2023-01-29T18:43:29;5.80;99.90
39675;DHT22;27790;50.840;4.386;2023-01-29T18:45:57;5.90;99.90
39675;DHT22;27790;50.840;4.386;2023-01-29T18:48:24;5.80;99.90
39675;DHT22;27790;50.840;4.386;2023-01-29T18:50:49;5.80;99.90